sensor_id;sensor_type;location;lat;lon;timestamp;pressure;altitude;pressure_sealevel;temperature;humidity
74242;BME280;62599;49.146;10.426;2023-07-08T00:00:41;96026.19;;;15.62;58.92
74242;BME280;62599;49.146;10.426;2023-07-08T00:03:07;96026.91;;;15.59;58.92
74242;BME280;62599;49.146;10.426;2023-07-08T00:05:32;96030.47;;;15.63;58.76
74242;BME280;62599;49.146;10.426;2023-07-08T00:07:58;96029.78;;;15.67;57.80
74242;BME280;62599;49.146;10.426;2023-07-08T00:10:26;96030.94;;;15.66;58.33
74242;BME280;62599;49.146;10.426;2023-07-08T00:12:54;96038.22;;;15.61;58.16
74242;BME280;62599;49.146;10.426;2023-07-08T00:15:31;96034.59;;;15.57;59.05
74242;BME280;62599;49.146;10.426;2023-07-08T00:17:58;96032.16;;;15.52;59.85
74242;BME280;62599;49.146;10.426;2023-07-08T00:22:54;96027.44;;;15.49;59.54
74242;BME280;62599;49.146;10.426;2023-07-08T00:25:20;96021.84;;;15.42;59.32
74242;BME280;62599;49.146;10.426;2023-07-08T00:27:47;96018.66;;;15.36;59.83
74242;BME280;62599;49.146;10.426;2023-07-08T00:32:50;96016.38;;;15.23;59.74
74242;BME280;62599;49.146;10.426;2023-07-08T00:37:52;96018.06;;;15.11;60.72
74242;BME280;62599;49.146;10.426;2023-07-08T00:40:20;96013.69;;;15.07;59.58
74242;BME280;62599;49.146;10.426;2023-07-08T00:42:47;96012.03;;;15.02;61.06
74242;BME280;62599;49.146;10.426;2023-07-08T00:45:35;96010.66;;;14.92;60.04
74242;BME280;62599;49.146;10.426;2023-07-08T00:48:30;96009.66;;;14.85;60.92
74242;BME280;62599;49.146;10.426;2023-07-08T00:50:57;96004.06;;;14.78;61.37
74242;BME280;62599;49.146;10.426;2023-07-08T00:53:35;95997.34;;;14.72;61.00
74242;BME280;62599;49.146;10.426;2023-07-08T00:56:19;96003.84;;;14.67;61.66
74242;BME280;62599;49.146;10.426;2023-07-08T00:59:00;96001.72;;;14.60;61.79
74242;BME280;62599;49.146;10.426;2023-07-08T01:01:27;96003.56;;;14.56;62.11
74242;BME280;62599;49.146;10.426;2023-07-08T01:03:56;96002.25;;;14.50;62.76
74242;BME280;62599;49.146;10.426;2023-07-08T01:06:24;95998.19;;;14.44;63.85
74242;BME280;62599;49.146;10.426;2023-07-08T01:09:00;95998.44;;;14.39;63.10
74242;BME280;62599;49.146;10.426;2023-07-08T01:11:28;95999.91;;;14.36;63.80
74242;BME280;62599;49.146;10.426;2023-07-08T01:13:54;96010.25;;;14.31;64.50
74242;BME280;62599;49.146;10.426;2023-07-08T01:16:20;96003.81;;;14.23;64.32
74242;BME280;62599;49.146;10.426;2023-07-08T01:18:46;95999.72;;;14.13;64.58
74242;BME280;62599;49.146;10.426;2023-07-08T01:23:59;95992.97;;;14.07;64.95
74242;BME280;62599;49.146;10.426;2023-07-08T01:26:26;96006.97;;;14.09;64.91
74242;BME280;62599;49.146;10.426;2023-07-08T01:28:53;96006.25;;;14.12;65.83
74242;BME280;62599;49.146;10.426;2023-07-08T01:31:19;96009.84;;;14.16;65.47
74242;BME280;62599;49.146;10.426;2023-07-08T01:33:44;96001.00;;;14.19;65.56
74242;BME280;62599;49.146;10.426;2023-07-08T01:36:11;96009.13;;;14.19;66.02
74242;BME280;62599;49.146;10.426;2023-07-08T01:38:37;96009.97;;;14.20;66.12
74242;BME280;62599;49.146;10.426;2023-07-08T01:41:03;96006.00;;;14.17;66.60
74242;BME280;62599;49.146;10.426;2023-07-08T01:43:29;96009.84;;;14.16;66.71
74242;BME280;62599;49.146;10.426;2023-07-08T01:45:54;96009.41;;;14.14;66.72
74242;BME280;62599;49.146;10.426;2023-07-08T01:48:24;96002.41;;;14.13;67.39
74242;BME280;62599;49.146;10.426;2023-07-08T01:50:59;96010.66;;;14.17;66.67
74242;BME280;62599;49.146;10.426;2023-07-08T01:53:34;96014.22;;;14.21;66.00
74242;BME280;62599;49.146;10.426;2023-07-08T01:56:00;96011.25;;;14.26;65.99
74242;BME280;62599;49.146;10.426;2023-07-08T01:58:26;96010.16;;;14.27;66.31
74242;BME280;62599;49.146;10.426;2023-07-08T02:00:53;95997.63;;;14.23;66.89
74242;BME280;62599;49.146;10.426;2023-07-08T02:03:19;95998.31;;;14.19;66.21
74242;BME280;62599;49.146;10.426;2023-07-08T02:05:45;95996.06;;;14.21;65.38
74242;BME280;62599;49.146;10.426;2023-07-08T02:08:10;95984.44;;;14.21;64.72
74242;BME280;62599;49.146;10.426;2023-07-08T02:10:37;95995.59;;;14.19;65.68
74242;BME280;62599;49.146;10.426;2023-07-08T02:13:03;95987.28;;;14.12;66.02
74242;BME280;62599;49.146;10.426;2023-07-08T02:15:29;95995.25;;;14.05;65.59
74242;BME280;62599;49.146;10.426;2023-07-08T02:17:54;95990.16;;;14.04;66.04
74242;BME280;62599;49.146;10.426;2023-07-08T02:20:20;95990.16;;;14.04;66.25
74242;BME280;62599;49.146;10.426;2023-07-08T02:22:45;95991.19;;;13.99;66.29
74242;BME280;62599;49.146;10.426;2023-07-08T02:25:10;95993.13;;;13.99;67.09
74242;BME280;62599;49.146;10.426;2023-07-08T02:27:37;95994.59;;;13.96;67.34
74242;BME280;62599;49.146;10.426;2023-07-08T02:30:03;95994.94;;;13.94;67.41
74242;BME280;62599;49.146;10.426;2023-07-08T02:32:28;95992.81;;;13.88;66.90
74242;BME280;62599;49.146;10.426;2023-07-08T02:34:54;95980.66;;;13.82;67.92
74242;BME280;62599;49.146;10.426;2023-07-08T02:37:19;95985.19;;;13.78;67.13
74242;BME280;62599;49.146;10.426;2023-07-08T02:39:44;95988.31;;;13.80;68.10
74242;BME280;62599;49.146;10.426;2023-07-08T02:42:10;95992.16;;;13.79;67.42
74242;BME280;62599;49.146;10.426;2023-07-08T02:44:35;95998.97;;;13.72;68.10
74242;BME280;62599;49.146;10.426;2023-07-08T02:47:00;95999.47;;;13.62;68.60
74242;BME280;62599;49.146;10.426;2023-07-08T02:49:26;96002.28;;;13.54;69.76
74242;BME280;62599;49.146;10.426;2023-07-08T02:51:51;96004.69;;;13.43;69.72
74242;BME280;62599;49.146;10.426;2023-07-08T02:54:17;96006.28;;;13.32;70.48
74242;BME280;62599;49.146;10.426;2023-07-08T02:56:43;96003.69;;;13.23;70.66
74242;BME280;62599;49.146;10.426;2023-07-08T02:59:08;96008.75;;;13.24;70.36
74242;BME280;62599;49.146;10.426;2023-07-08T03:01:33;96004.25;;;13.29;70.63
74242;BME280;62599;49.146;10.426;2023-07-08T03:04:09;96012.47;;;13.32;70.59
74242;BME280;62599;49.146;10.426;2023-07-08T03:06:39;96012.94;;;13.34;69.52
74242;BME280;62599;49.146;10.426;2023-07-08T03:09:05;96011.78;;;13.35;69.43
74242;BME280;62599;49.146;10.426;2023-07-08T03:11:31;96015.06;;;13.41;69.88
74242;BME280;62599;49.146;10.426;2023-07-08T03:13:56;96013.16;;;13.41;69.83
74242;BME280;62599;49.146;10.426;2023-07-08T03:16:22;96019.81;;;13.44;69.91
74242;BME280;62599;49.146;10.426;2023-07-08T03:18:47;96019.09;;;13.47;70.01
74242;BME280;62599;49.146;10.426;2023-07-08T03:21:15;96023.03;;;13.49;69.71
74242;BME280;62599;49.146;10.426;2023-07-08T03:23:41;96024.97;;;13.49;70.10
74242;BME280;62599;49.146;10.426;2023-07-08T03:26:07;96023.72;;;13.46;69.92
74242;BME280;62599;49.146;10.426;2023-07-08T03:28:32;96026.78;;;13.45;70.22
74242;BME280;62599;49.146;10.426;2023-07-08T03:30:57;96024.41;;;13.43;70.32
74242;BME280;62599;49.146;10.426;2023-07-08T03:33:23;96027.47;;;13.42;70.92
74242;BME280;62599;49.146;10.426;2023-07-08T03:35:49;96026.88;;;13.48;70.21
74242;BME280;62599;49.146;10.426;2023-07-08T03:38:15;96030.47;;;13.53;70.38
74242;BME280;62599;49.146;10.426;2023-07-08T03:40:40;96030.13;;;13.54;71.23
74242;BME280;62599;49.146;10.426;2023-07-08T03:43:06;96037.34;;;13.62;70.75
74242;BME280;62599;49.146;10.426;2023-07-08T03:45:31;96037.09;;;13.67;70.21
74242;BME280;62599;49.146;10.426;2023-07-08T03:47:56;96035.97;;;13.68;70.25
74242;BME280;62599;49.146;10.426;2023-07-08T03:50:24;96035.19;;;13.68;70.19
74242;BME280;62599;49.146;10.426;2023-07-08T03:52:51;96031.38;;;13.69;70.40
74242;BME280;62599;49.146;10.426;2023-07-08T03:55:18;96041.16;;;13.73;70.29
74242;BME280;62599;49.146;10.426;2023-07-08T03:57:44;96039.66;;;13.76;70.05
74242;BME280;62599;49.146;10.426;2023-07-08T04:00:09;96045.19;;;13.80;70.42
74242;BME280;62599;49.146;10.426;2023-07-08T04:02:37;96034.81;;;13.82;70.79
74242;BME280;62599;49.146;10.426;2023-07-08T04:05:03;96051.16;;;13.85;70.74
74242;BME280;62599;49.146;10.426;2023-07-08T04:07:29;96039.66;;;13.88;70.35
74242;BME280;62599;49.146;10.426;2023-07-08T04:09:54;96045.16;;;13.92;70.51
74242;BME280;62599;49.146;10.426;2023-07-08T04:12:20;96053.13;;;14.01;70.43
74242;BME280;62599;49.146;10.426;2023-07-08T04:14:45;96047.03;;;14.04;70.99
74242;BME280;62599;49.146;10.426;2023-07-08T04:17:11;96044.16;;;14.12;71.32
74242;BME280;62599;49.146;10.426;2023-07-08T04:19:37;96047.06;;;14.19;72.26
74242;BME280;62599;49.146;10.426;2023-07-08T04:22:05;96046.84;;;14.25;71.58
74242;BME280;62599;49.146;10.426;2023-07-08T04:24:31;96047.47;;;14.34;71.28
74242;BME280;62599;49.146;10.426;2023-07-08T04:26:57;96054.22;;;14.40;70.55
74242;BME280;62599;49.146;10.426;2023-07-08T04:29:24;96046.97;;;14.44;70.97
74242;BME280;62599;49.146;10.426;2023-07-08T04:31:50;96053.63;;;14.47;70.63
74242;BME280;62599;49.146;10.426;2023-07-08T04:34:16;96046.41;;;14.51;69.79
74242;BME280;62599;49.146;10.426;2023-07-08T04:36:42;96048.50;;;14.57;69.81
74242;BME280;62599;49.146;10.426;2023-07-08T04:39:08;96039.41;;;14.65;69.80
74242;BME280;62599;49.146;10.426;2023-07-08T04:41:36;96044.59;;;14.71;69.82
74242;BME280;62599;49.146;10.426;2023-07-08T04:44:09;96040.06;;;14.75;68.98
74242;BME280;62599;49.146;10.426;2023-07-08T04:46:38;96046.78;;;14.81;68.43
74242;BME280;62599;49.146;10.426;2023-07-08T04:49:06;96053.97;;;14.89;68.36
74242;BME280;62599;49.146;10.426;2023-07-08T04:51:34;96064.19;;;14.96;68.25
74242;BME280;62599;49.146;10.426;2023-07-08T04:54:00;96055.03;;;15.00;67.80
74242;BME280;62599;49.146;10.426;2023-07-08T04:59:07;96071.72;;;15.18;67.67
74242;BME280;62599;49.146;10.426;2023-07-08T05:01:33;96088.28;;;15.29;66.97
74242;BME280;62599;49.146;10.426;2023-07-08T05:03:59;96087.00;;;15.42;66.50
74242;BME280;62599;49.146;10.426;2023-07-08T05:06:25;96079.47;;;15.51;67.68
74242;BME280;62599;49.146;10.426;2023-07-08T05:08:51;96083.47;;;15.57;66.54
74242;BME280;62599;49.146;10.426;2023-07-08T05:11:16;96074.81;;;15.68;66.35
74242;BME280;62599;49.146;10.426;2023-07-08T05:13:42;96076.28;;;15.81;66.00
74242;BME280;62599;49.146;10.426;2023-07-08T05:16:07;96068.84;;;15.97;66.09
74242;BME280;62599;49.146;10.426;2023-07-08T05:18:32;96070.75;;;16.12;66.36
74242;BME280;62599;49.146;10.426;2023-07-08T05:20:58;96071.44;;;16.29;66.12
74242;BME280;62599;49.146;10.426;2023-07-08T05:23:23;96076.78;;;16.45;65.68
74242;BME280;62599;49.146;10.426;2023-07-08T05:25:49;96073.13;;;16.56;65.72
74242;BME280;62599;49.146;10.426;2023-07-08T05:28:15;96074.06;;;16.64;66.06
74242;BME280;62599;49.146;10.426;2023-07-08T05:30:41;96064.81;;;16.69;66.11
74242;BME280;62599;49.146;10.426;2023-07-08T05:33:07;96061.53;;;16.79;67.08
74242;BME280;62599;49.146;10.426;2023-07-08T05:35:32;96069.50;;;16.91;66.57
74242;BME280;62599;49.146;10.426;2023-07-08T05:37:57;96068.28;;;17.12;66.22
74242;BME280;62599;49.146;10.426;2023-07-08T05:40:23;96064.53;;;17.20;66.29
74242;BME280;62599;49.146;10.426;2023-07-08T05:42:48;96062.34;;;17.29;65.87
74242;BME280;62599;49.146;10.426;2023-07-08T05:45:14;96053.53;;;17.39;65.43
74242;BME280;62599;49.146;10.426;2023-07-08T05:47:39;96056.06;;;17.51;63.87
74242;BME280;62599;49.146;10.426;2023-07-08T05:50:05;96052.41;;;17.67;63.36
74242;BME280;62599;49.146;10.426;2023-07-08T05:52:31;96056.56;;;17.84;63.33
74242;BME280;62599;49.146;10.426;2023-07-08T05:54:56;96053.94;;;17.91;61.82
74242;BME280;62599;49.146;10.426;2023-07-08T05:57:22;96051.34;;;18.01;61.87
74242;BME280;62599;49.146;10.426;2023-07-08T05:59:48;96052.34;;;18.20;62.39
74242;BME280;62599;49.146;10.426;2023-07-08T06:02:16;96050.09;;;18.29;61.73
74242;BME280;62599;49.146;10.426;2023-07-08T06:04:42;96054.06;;;18.35;60.93
74242;BME280;62599;49.146;10.426;2023-07-08T06:07:07;96051.78;;;18.41;60.60
74242;BME280;62599;49.146;10.426;2023-07-08T06:09:33;96049.94;;;18.48;60.45
74242;BME280;62599;49.146;10.426;2023-07-08T06:11:58;96060.59;;;18.61;61.00
74242;BME280;62599;49.146;10.426;2023-07-08T06:14:24;96058.84;;;18.79;60.81
74242;BME280;62599;49.146;10.426;2023-07-08T06:16:50;96060.53;;;18.94;60.36
74242;BME280;62599;49.146;10.426;2023-07-08T06:19:16;96058.69;;;19.06;60.27
74242;BME280;62599;49.146;10.426;2023-07-08T06:21:42;96056.84;;;19.17;59.65
74242;BME280;62599;49.146;10.426;2023-07-08T06:24:08;96051.47;;;19.31;60.05
74242;BME280;62599;49.146;10.426;2023-07-08T06:26:33;96042.63;;;19.48;59.05
74242;BME280;62599;49.146;10.426;2023-07-08T06:28:59;96043.56;;;19.67;59.03
74242;BME280;62599;49.146;10.426;2023-07-08T06:31:24;96038.19;;;19.85;58.45
74242;BME280;62599;49.146;10.426;2023-07-08T06:33:50;96038.69;;;20.01;58.42
74242;BME280;62599;49.146;10.426;2023-07-08T06:36:16;96037.94;;;20.15;56.91
74242;BME280;62599;49.146;10.426;2023-07-08T06:38:41;96036.03;;;20.30;55.88
74242;BME280;62599;49.146;10.426;2023-07-08T06:41:06;96039.69;;;20.59;54.86
74242;BME280;62599;49.146;10.426;2023-07-08T06:43:32;96046.38;;;20.79;54.56
74242;BME280;62599;49.146;10.426;2023-07-08T06:45:57;96048.34;;;20.86;53.43
74242;BME280;62599;49.146;10.426;2023-07-08T06:48:23;96052.28;;;20.96;53.62
74242;BME280;62599;49.146;10.426;2023-07-08T06:50:49;96047.97;;;21.12;53.37
74242;BME280;62599;49.146;10.426;2023-07-08T06:53:15;96049.94;;;21.23;52.77
74242;BME280;62599;49.146;10.426;2023-07-08T06:55:40;96047.63;;;21.35;52.24
74242;BME280;62599;49.146;10.426;2023-07-08T06:58:06;96039.78;;;21.37;52.22
74242;BME280;62599;49.146;10.426;2023-07-08T07:00:31;96034.28;;;21.45;52.21
74242;BME280;62599;49.146;10.426;2023-07-08T07:02:57;96027.59;;;21.53;51.51
74242;BME280;62599;49.146;10.426;2023-07-08T07:05:22;96036.56;;;21.71;50.97
74242;BME280;62599;49.146;10.426;2023-07-08T07:07:47;96035.00;;;21.84;51.06
74242;BME280;62599;49.146;10.426;2023-07-08T07:10:13;96040.44;;;22.02;51.12
74242;BME280;62599;49.146;10.426;2023-07-08T07:12:38;96041.16;;;22.21;50.33
74242;BME280;62599;49.146;10.426;2023-07-08T07:15:04;96048.13;;;22.40;49.74
74242;BME280;62599;49.146;10.426;2023-07-08T07:17:30;96043.00;;;22.52;49.02
74242;BME280;62599;49.146;10.426;2023-07-08T07:19:56;96046.88;;;22.58;49.27
74242;BME280;62599;49.146;10.426;2023-07-08T07:22:22;96044.44;;;22.71;48.75
74242;BME280;62599;49.146;10.426;2023-07-08T07:24:48;96037.66;;;22.90;48.49
74242;BME280;62599;49.146;10.426;2023-07-08T07:27:13;96041.91;;;23.02;48.30
74242;BME280;62599;49.146;10.426;2023-07-08T07:29:44;96041.81;;;23.16;47.35
74242;BME280;62599;49.146;10.426;2023-07-08T07:32:11;96049.91;;;23.34;46.71
74242;BME280;62599;49.146;10.426;2023-07-08T07:34:38;96044.56;;;23.61;47.17
74242;BME280;62599;49.146;10.426;2023-07-08T07:37:04;96039.94;;;23.92;45.84
74242;BME280;62599;49.146;10.426;2023-07-08T07:39:30;96037.72;;;24.14;45.07
74242;BME280;62599;49.146;10.426;2023-07-08T07:41:55;96039.06;;;24.37;44.89
74242;BME280;62599;49.146;10.426;2023-07-08T07:44:20;96035.78;;;24.49;44.26
74242;BME280;62599;49.146;10.426;2023-07-08T07:46:49;96031.63;;;24.64;44.25
74242;BME280;62599;49.146;10.426;2023-07-08T07:49:14;96036.25;;;24.71;44.37
74242;BME280;62599;49.146;10.426;2023-07-08T07:51:39;96039.00;;;24.71;44.68
74242;BME280;62599;49.146;10.426;2023-07-08T07:54:05;96040.03;;;24.84;43.68
74242;BME280;62599;49.146;10.426;2023-07-08T07:56:30;96039.97;;;24.88;44.27
74242;BME280;62599;49.146;10.426;2023-07-08T07:58:55;96046.91;;;25.23;44.30
74242;BME280;62599;49.146;10.426;2023-07-08T08:01:21;96053.84;;;25.58;43.81
74242;BME280;62599;49.146;10.426;2023-07-08T08:03:46;96059.09;;;25.96;42.47
74242;BME280;62599;49.146;10.426;2023-07-08T08:06:12;96085.31;;;26.08;41.97
74242;BME280;62599;49.146;10.426;2023-07-08T08:08:46;96089.97;;;25.91;42.07
74242;BME280;62599;49.146;10.426;2023-07-08T08:11:12;96085.53;;;25.97;42.08
74242;BME280;62599;49.146;10.426;2023-07-08T08:13:37;96085.16;;;25.95;41.98
74242;BME280;62599;49.146;10.426;2023-07-08T08:16:04;96080.41;;;25.96;42.46
74242;BME280;62599;49.146;10.426;2023-07-08T08:18:30;96082.25;;;26.02;41.91
74242;BME280;62599;49.146;10.426;2023-07-08T08:20:55;96082.97;;;26.06;40.48
74242;BME280;62599;49.146;10.426;2023-07-08T08:23:21;96079.88;;;26.04;40.64
74242;BME280;62599;49.146;10.426;2023-07-08T08:25:46;96084.44;;;25.91;41.27
74242;BME280;62599;49.146;10.426;2023-07-08T08:28:12;96087.31;;;25.84;41.07
74242;BME280;62599;49.146;10.426;2023-07-08T08:30:37;96092.59;;;25.75;41.47
74242;BME280;62599;49.146;10.426;2023-07-08T08:33:03;96096.78;;;25.59;42.05
74242;BME280;62599;49.146;10.426;2023-07-08T08:35:28;96095.78;;;25.50;42.06
74242;BME280;62599;49.146;10.426;2023-07-08T08:37:54;96101.25;;;25.53;41.42
74242;BME280;62599;49.146;10.426;2023-07-08T08:40:20;96098.22;;;25.44;40.08
74242;BME280;62599;49.146;10.426;2023-07-08T08:43:07;96100.41;;;25.29;37.66
74242;BME280;62599;49.146;10.426;2023-07-08T08:45:41;96098.16;;;25.24;38.31
74242;BME280;62599;49.146;10.426;2023-07-08T08:48:10;96102.41;;;25.29;39.02
74242;BME280;62599;49.146;10.426;2023-07-08T08:53:21;96093.41;;;25.48;39.02
74242;BME280;62599;49.146;10.426;2023-07-08T08:56:03;96102.84;;;25.51;38.89
74242;BME280;62599;49.146;10.426;2023-07-08T08:58:41;96098.81;;;25.55;38.73
74242;BME280;62599;49.146;10.426;2023-07-08T09:01:20;96101.47;;;25.62;39.58
74242;BME280;62599;49.146;10.426;2023-07-08T09:04:17;96100.00;;;25.78;39.16
74242;BME280;62599;49.146;10.426;2023-07-08T09:06:45;96092.72;;;25.91;38.61
74242;BME280;62599;49.146;10.426;2023-07-08T09:09:37;96093.25;;;26.06;38.22
74242;BME280;62599;49.146;10.426;2023-07-08T09:12:17;96090.78;;;26.11;37.88
74242;BME280;62599;49.146;10.426;2023-07-08T09:15:06;96096.03;;;26.26;37.66
74242;BME280;62599;49.146;10.426;2023-07-08T09:17:38;96097.72;;;26.20;37.44
74242;BME280;62599;49.146;10.426;2023-07-08T09:20:30;96092.69;;;26.34;37.10
74242;BME280;62599;49.146;10.426;2023-07-08T09:28:43;96084.78;;;26.76;36.90
74242;BME280;62599;49.146;10.426;2023-07-08T09:31:21;96095.03;;;26.76;37.13
74242;BME280;62599;49.146;10.426;2023-07-08T09:33:51;96088.66;;;26.79;36.84
74242;BME280;62599;49.146;10.426;2023-07-08T09:36:24;96090.84;;;26.87;36.65
74242;BME280;62599;49.146;10.426;2023-07-08T09:38:50;96096.25;;;26.75;36.57
74242;BME280;62599;49.146;10.426;2023-07-08T09:41:34;96091.41;;;26.79;36.37
74242;BME280;62599;49.146;10.426;2023-07-08T09:44:25;96084.38;;;26.94;36.34
74242;BME280;62599;49.146;10.426;2023-07-08T09:46:56;96086.47;;;27.06;36.15
74242;BME280;62599;49.146;10.426;2023-07-08T09:49:27;96095.34;;;27.18;36.80
74242;BME280;62599;49.146;10.426;2023-07-08T09:51:53;96093.78;;;27.17;36.47
74242;BME280;62599;49.146;10.426;2023-07-08T09:54:20;96096.47;;;27.00;35.35
74242;BME280;62599;49.146;10.426;2023-07-08T09:57:23;96090.94;;;26.84;34.84
74242;BME280;62599;49.146;10.426;2023-07-08T09:59:49;96089.03;;;26.97;35.52
74242;BME280;62599;49.146;10.426;2023-07-08T10:02:39;96087.72;;;27.22;35.50
74242;BME280;62599;49.146;10.426;2023-07-08T10:05:29;96086.00;;;27.28;36.13
74242;BME280;62599;49.146;10.426;2023-07-08T10:07:58;96086.00;;;27.28;35.14
74242;BME280;62599;49.146;10.426;2023-07-08T10:10:30;96094.41;;;27.04;35.91
74242;BME280;62599;49.146;10.426;2023-07-08T10:12:58;96088.03;;;26.71;36.35
74242;BME280;62599;49.146;10.426;2023-07-08T10:15:34;96085.63;;;26.53;36.71
74242;BME280;62599;49.146;10.426;2023-07-08T10:18:01;96086.00;;;26.55;37.06
74242;BME280;62599;49.146;10.426;2023-07-08T10:20:49;96084.56;;;26.67;36.77
74242;BME280;62599;49.146;10.426;2023-07-08T10:23:34;96092.41;;;26.88;37.50
74242;BME280;62599;49.146;10.426;2023-07-08T10:26:32;96088.63;;;26.99;37.15
74242;BME280;62599;49.146;10.426;2023-07-08T10:32:08;96084.53;;;27.23;37.03
74242;BME280;62599;49.146;10.426;2023-07-08T10:37:36;96090.78;;;27.60;35.84
74242;BME280;62599;49.146;10.426;2023-07-08T10:45:35;96086.78;;;28.23;33.66
74242;BME280;62599;49.146;10.426;2023-07-08T10:48:15;96092.53;;;28.16;35.23
74242;BME280;62599;49.146;10.426;2023-07-08T10:56:16;96086.91;;;28.48;34.91
74242;BME280;62599;49.146;10.426;2023-07-08T11:02:00;96091.34;;;29.00;34.10
74242;BME280;62599;49.146;10.426;2023-07-08T11:08:01;96084.13;;;29.16;33.61
74242;BME280;62599;49.146;10.426;2023-07-08T11:10:37;96079.94;;;29.24;33.98
74242;BME280;62599;49.146;10.426;2023-07-08T11:13:19;96088.25;;;29.24;32.97
74242;BME280;62599;49.146;10.426;2023-07-08T11:15:54;96086.38;;;29.21;33.36
74242;BME280;62599;49.146;10.426;2023-07-08T11:18:28;96082.38;;;29.22;34.07
74242;BME280;62599;49.146;10.426;2023-07-08T11:21:08;96077.59;;;29.22;32.96
74242;BME280;62599;49.146;10.426;2023-07-08T11:23:44;96075.59;;;29.10;33.33
74242;BME280;62599;49.146;10.426;2023-07-08T11:28:43;96066.56;;;29.44;32.64
74242;BME280;62599;49.146;10.426;2023-07-08T11:31:10;96070.03;;;29.61;32.87
74242;BME280;62599;49.146;10.426;2023-07-08T11:33:38;96068.69;;;29.66;32.54
74242;BME280;62599;49.146;10.426;2023-07-08T11:36:04;96063.53;;;29.77;32.10
74242;BME280;62599;49.146;10.426;2023-07-08T11:38:31;96074.50;;;29.93;32.09
74242;BME280;62599;49.146;10.426;2023-07-08T11:41:11;96072.53;;;30.16;31.69
74242;BME280;62599;49.146;10.426;2023-07-08T11:43:48;96064.97;;;30.60;31.77
74242;BME280;62599;49.146;10.426;2023-07-08T11:46:19;96061.84;;;31.02;30.87
74242;BME280;62599;49.146;10.426;2023-07-08T11:48:53;96059.28;;;31.26;30.33
74242;BME280;62599;49.146;10.426;2023-07-08T11:51:32;96061.88;;;31.61;30.13
74242;BME280;62599;49.146;10.426;2023-07-08T11:54:00;96060.97;;;31.73;29.50
74242;BME280;62599;49.146;10.426;2023-07-08T11:56:26;96052.47;;;31.77;29.41
74242;BME280;62599;49.146;10.426;2023-07-08T11:59:12;96058.19;;;31.64;29.18
74242;BME280;62599;49.146;10.426;2023-07-08T12:01:53;96055.63;;;31.97;28.52
74242;BME280;62599;49.146;10.426;2023-07-08T12:04:28;96065.69;;;32.04;28.61
74242;BME280;62599;49.146;10.426;2023-07-08T12:07:54;96062.28;;;32.09;28.91
74242;BME280;62599;49.146;10.426;2023-07-08T12:10:04;96059.78;;;32.20;28.28
74242;BME280;62599;49.146;10.426;2023-07-08T12:12:34;96061.28;;;31.84;28.93
74242;BME280;62599;49.146;10.426;2023-07-08T12:15:09;96062.13;;;31.94;29.40
74242;BME280;62599;49.146;10.426;2023-07-08T12:17:38;96066.00;;;32.15;28.66
74242;BME280;62599;49.146;10.426;2023-07-08T12:20:15;96055.75;;;32.30;28.28
74242;BME280;62599;49.146;10.426;2023-07-08T12:22:42;96065.97;;;32.24;28.83
74242;BME280;62599;49.146;10.426;2023-07-08T12:25:17;96065.97;;;32.33;28.40
74242;BME280;62599;49.146;10.426;2023-07-08T12:27:44;96065.97;;;32.33;28.49
74242;BME280;62599;49.146;10.426;2023-07-08T12:30:11;96064.75;;;32.25;28.56
74242;BME280;62599;49.146;10.426;2023-07-08T12:32:37;96056.69;;;32.36;27.83
74242;BME280;62599;49.146;10.426;2023-07-08T12:35:03;96056.31;;;32.71;28.11
74242;BME280;62599;49.146;10.426;2023-07-08T12:37:31;96049.13;;;33.07;27.39
74242;BME280;62599;49.146;10.426;2023-07-08T12:39:57;96064.97;;;32.92;27.38
74242;BME280;62599;49.146;10.426;2023-07-08T12:42:30;96066.66;;;32.89;27.28
74242;BME280;62599;49.146;10.426;2023-07-08T12:44:56;96068.41;;;33.29;27.10
74242;BME280;62599;49.146;10.426;2023-07-08T12:47:22;96059.50;;;33.40;26.71
74242;BME280;62599;49.146;10.426;2023-07-08T12:49:47;96065.19;;;33.21;27.13
74242;BME280;62599;49.146;10.426;2023-07-08T12:52:23;96069.94;;;32.88;26.47
74242;BME280;62599;49.146;10.426;2023-07-08T12:54:49;96071.56;;;32.52;27.21
74242;BME280;62599;49.146;10.426;2023-07-08T12:57:16;96067.69;;;32.40;27.10
74242;BME280;62599;49.146;10.426;2023-07-08T12:59:43;96067.84;;;32.46;27.21
74242;BME280;62599;49.146;10.426;2023-07-08T13:02:15;96068.47;;;32.50;27.43
74242;BME280;62599;49.146;10.426;2023-07-08T13:04:46;96075.13;;;32.34;27.27
74242;BME280;62599;49.146;10.426;2023-07-08T13:07:31;96069.88;;;32.45;27.45
74242;BME280;62599;49.146;10.426;2023-07-08T13:09:59;96069.06;;;32.72;27.19
74242;BME280;62599;49.146;10.426;2023-07-08T13:12:25;96071.97;;;32.78;27.34
74242;BME280;62599;49.146;10.426;2023-07-08T13:14:53;96072.41;;;33.37;26.78
74242;BME280;62599;49.146;10.426;2023-07-08T13:17:19;96072.13;;;33.35;26.43
74242;BME280;62599;49.146;10.426;2023-07-08T13:19:45;96073.34;;;33.01;26.67
74242;BME280;62599;49.146;10.426;2023-07-08T13:22:21;96078.97;;;32.73;27.11
74242;BME280;62599;49.146;10.426;2023-07-08T13:24:47;96072.50;;;32.58;27.07
74242;BME280;62599;49.146;10.426;2023-07-08T13:27:21;96072.19;;;32.01;27.25
74242;BME280;62599;49.146;10.426;2023-07-08T13:29:51;96069.88;;;31.99;28.13
74242;BME280;62599;49.146;10.426;2023-07-08T13:32:17;96069.22;;;31.95;28.12
74242;BME280;62599;49.146;10.426;2023-07-08T13:34:42;96063.19;;;32.06;28.62
74242;BME280;62599;49.146;10.426;2023-07-08T13:37:12;96075.13;;;31.97;28.67
74242;BME280;62599;49.146;10.426;2023-07-08T13:39:44;96069.38;;;31.92;28.67
74242;BME280;62599;49.146;10.426;2023-07-08T13:42:11;96075.28;;;32.12;28.24
74242;BME280;62599;49.146;10.426;2023-07-08T13:44:44;96082.41;;;32.22;28.30
74242;BME280;62599;49.146;10.426;2023-07-08T13:47:20;96070.94;;;32.57;27.51